Terminal Aerodrome Forecast
Issued by NWS

Home | Current Version | Previous Version | Text Only | Print | Product List | Glossary On
Versions: 1 2 3 4 5 6 7 8 9 10 11 12 13 14 15
041
FTUS45 KRIW 052324
TAFLND
TAF
KLND 052324Z 0600/0624 30010G15KT P6SM FEW080
     FM060200 28010KT P6SM SKC
     FM060800 VRB05KT P6SM SKC=

USA.gov is the U.S. government's official web portal to all federal, state and local government web resources and services.